sensor_id;sensor_type;location;lat;lon;timestamp;P1;durP1;ratioP1;P2;durP2;ratioP2
70320;SDS011;61127;55.826;37.046;2024-03-23T00:54:22;36.78;;;16.05;;
70320;SDS011;61127;55.826;37.046;2024-03-23T00:56:48;33.40;;;16.65;;
70320;SDS011;61127;55.826;37.046;2024-03-23T00:59:14;31.13;;;15.13;;
70320;SDS011;61127;55.826;37.046;2024-03-23T01:01:40;37.20;;;17.70;;
70320;SDS011;61127;55.826;37.046;2024-03-23T01:04:06;34.28;;;15.63;;
70320;SDS011;61127;55.826;37.046;2024-03-23T01:06:32;29.88;;;14.13;;
70320;SDS011;61127;55.826;37.046;2024-03-23T01:08:58;36.47;;;16.15;;
70320;SDS011;61127;55.826;37.046;2024-03-23T01:11:43;34.97;;;16.00;;
70320;SDS011;61127;55.826;37.046;2024-03-23T01:14:09;35.42;;;15.82;;
70320;SDS011;61127;55.826;37.046;2024-03-23T01:16:35;33.40;;;15.63;;
70320;SDS011;61127;55.826;37.046;2024-03-23T01:19:01;35.45;;;16.23;;
70320;SDS011;61127;55.826;37.046;2024-03-23T01:21:27;34.97;;;15.70;;
70320;SDS011;61127;55.826;37.046;2024-03-23T01:23:53;32.65;;;15.85;;
70320;SDS011;61127;55.826;37.046;2024-03-23T01:26:19;34.47;;;15.52;;
70320;SDS011;61127;55.826;37.046;2024-03-23T01:28:45;31.65;;;14.88;;
70320;SDS011;61127;55.826;37.046;2024-03-23T01:31:11;37.00;;;15.88;;
70320;SDS011;61127;55.826;37.046;2024-03-23T01:33:37;33.58;;;16.67;;
70320;SDS011;61127;55.826;37.046;2024-03-23T01:36:03;34.30;;;15.45;;
70320;SDS011;61127;55.826;37.046;2024-03-23T01:38:30;33.63;;;15.77;;
70320;SDS011;61127;55.826;37.046;2024-03-23T01:40:56;33.10;;;15.30;;
70320;SDS011;61127;55.826;37.046;2024-03-23T01:43:23;35.60;;;16.38;;
70320;SDS011;61127;55.826;37.046;2024-03-23T01:45:49;31.40;;;15.48;;
70320;SDS011;61127;55.826;37.046;2024-03-23T01:48:16;34.55;;;17.27;;
70320;SDS011;61127;55.826;37.046;2024-03-23T01:50:42;34.45;;;16.88;;
70320;SDS011;61127;55.826;37.046;2024-03-23T01:53:08;33.35;;;15.90;;
70320;SDS011;61127;55.826;37.046;2024-03-23T01:55:34;34.55;;;16.25;;
70320;SDS011;61127;55.826;37.046;2024-03-23T01:58:04;34.72;;;16.35;;
70320;SDS011;61127;55.826;37.046;2024-03-23T02:00:30;32.93;;;15.57;;
70320;SDS011;61127;55.826;37.046;2024-03-23T02:02:56;35.83;;;17.00;;
70320;SDS011;61127;55.826;37.046;2024-03-23T02:05:22;35.03;;;15.70;;
70320;SDS011;61127;55.826;37.046;2024-03-23T02:07:49;37.17;;;16.23;;
70320;SDS011;61127;55.826;37.046;2024-03-23T02:10:17;32.50;;;15.50;;
70320;SDS011;61127;55.826;37.046;2024-03-23T02:12:44;34.70;;;16.15;;
70320;SDS011;61127;55.826;37.046;2024-03-23T02:15:10;35.67;;;16.50;;
70320;SDS011;61127;55.826;37.046;2024-03-23T02:17:36;33.47;;;16.55;;
70320;SDS011;61127;55.826;37.046;2024-03-23T02:20:02;33.75;;;15.45;;
70320;SDS011;61127;55.826;37.046;2024-03-23T02:22:35;35.07;;;15.60;;
70320;SDS011;61127;55.826;37.046;2024-03-23T02:25:05;33.00;;;15.15;;
70320;SDS011;61127;55.826;37.046;2024-03-23T02:27:32;34.03;;;15.20;;
70320;SDS011;61127;55.826;37.046;2024-03-23T02:30:00;31.45;;;15.05;;
70320;SDS011;61127;55.826;37.046;2024-03-23T02:32:26;34.58;;;16.17;;
70320;SDS011;61127;55.826;37.046;2024-03-23T02:34:52;32.43;;;15.80;;
70320;SDS011;61127;55.826;37.046;2024-03-23T02:37:18;33.53;;;15.55;;
70320;SDS011;61127;55.826;37.046;2024-03-23T02:39:44;34.05;;;15.15;;
70320;SDS011;61127;55.826;37.046;2024-03-23T02:42:10;30.45;;;14.43;;
70320;SDS011;61127;55.826;37.046;2024-03-23T02:44:36;35.43;;;16.37;;
70320;SDS011;61127;55.826;37.046;2024-03-23T02:47:02;31.67;;;15.20;;
70320;SDS011;61127;55.826;37.046;2024-03-23T02:49:28;36.22;;;16.20;;
70320;SDS011;61127;55.826;37.046;2024-03-23T02:51:54;29.60;;;15.20;;
70320;SDS011;61127;55.826;37.046;2024-03-23T02:54:38;36.10;;;16.13;;
70320;SDS011;61127;55.826;37.046;2024-03-23T02:57:04;30.63;;;15.68;;
70320;SDS011;61127;55.826;37.046;2024-03-23T02:59:30;32.05;;;16.02;;
70320;SDS011;61127;55.826;37.046;2024-03-23T03:01:56;31.20;;;15.45;;
70320;SDS011;61127;55.826;37.046;2024-03-23T03:04:22;31.63;;;14.48;;
70320;SDS011;61127;55.826;37.046;2024-03-23T03:06:51;34.55;;;16.70;;
70320;SDS011;61127;55.826;37.046;2024-03-23T03:09:18;36.35;;;17.45;;
70320;SDS011;61127;55.826;37.046;2024-03-23T03:11:43;32.88;;;15.82;;
70320;SDS011;61127;55.826;37.046;2024-03-23T03:14:10;30.73;;;15.18;;
70320;SDS011;61127;55.826;37.046;2024-03-23T03:16:36;34.13;;;15.07;;
70320;SDS011;61127;55.826;37.046;2024-03-23T03:19:02;32.65;;;14.45;;
70320;SDS011;61127;55.826;37.046;2024-03-23T03:21:29;31.23;;;16.38;;
70320;SDS011;61127;55.826;37.046;2024-03-23T03:23:56;34.28;;;16.17;;
70320;SDS011;61127;55.826;37.046;2024-03-23T03:26:22;30.88;;;15.05;;
70320;SDS011;61127;55.826;37.046;2024-03-23T03:28:52;34.88;;;16.08;;
70320;SDS011;61127;55.826;37.046;2024-03-23T03:31:18;38.30;;;17.33;;
70320;SDS011;61127;55.826;37.046;2024-03-23T03:33:45;33.90;;;16.88;;
70320;SDS011;61127;55.826;37.046;2024-03-23T03:36:11;36.75;;;15.90;;
70320;SDS011;61127;55.826;37.046;2024-03-23T03:38:37;37.22;;;17.70;;
70320;SDS011;61127;55.826;37.046;2024-03-23T03:41:06;37.10;;;16.70;;
70320;SDS011;61127;55.826;37.046;2024-03-23T03:43:32;36.00;;;17.55;;
70320;SDS011;61127;55.826;37.046;2024-03-23T03:45:59;34.92;;;16.67;;
70320;SDS011;61127;55.826;37.046;2024-03-23T03:48:44;35.22;;;16.60;;
70320;SDS011;61127;55.826;37.046;2024-03-23T03:51:11;34.42;;;17.25;;
70320;SDS011;61127;55.826;37.046;2024-03-23T03:53:37;35.92;;;16.58;;
70320;SDS011;61127;55.826;37.046;2024-03-23T03:56:03;37.05;;;17.20;;
70320;SDS011;61127;55.826;37.046;2024-03-23T03:58:29;34.90;;;17.38;;
70320;SDS011;61127;55.826;37.046;2024-03-23T04:00:56;36.72;;;16.98;;
70320;SDS011;61127;55.826;37.046;2024-03-23T04:03:22;36.55;;;16.13;;
70320;SDS011;61127;55.826;37.046;2024-03-23T04:05:51;35.88;;;17.17;;
70320;SDS011;61127;55.826;37.046;2024-03-23T04:08:18;39.75;;;17.70;;
70320;SDS011;61127;55.826;37.046;2024-03-23T04:10:45;34.33;;;16.02;;
70320;SDS011;61127;55.826;37.046;2024-03-23T04:13:12;31.73;;;15.45;;
70320;SDS011;61127;55.826;37.046;2024-03-23T04:15:38;35.92;;;16.63;;
70320;SDS011;61127;55.826;37.046;2024-03-23T04:18:05;33.05;;;14.95;;
70320;SDS011;61127;55.826;37.046;2024-03-23T04:20:31;37.25;;;16.77;;
70320;SDS011;61127;55.826;37.046;2024-03-23T04:23:01;31.63;;;16.63;;
70320;SDS011;61127;55.826;37.046;2024-03-23T04:25:27;30.35;;;14.20;;
70320;SDS011;61127;55.826;37.046;2024-03-23T04:27:53;33.95;;;16.17;;
70320;SDS011;61127;55.826;37.046;2024-03-23T04:30:19;31.17;;;14.45;;
70320;SDS011;61127;55.826;37.046;2024-03-23T04:32:49;33.50;;;16.10;;
70320;SDS011;61127;55.826;37.046;2024-03-23T04:35:15;33.77;;;17.07;;
70320;SDS011;61127;55.826;37.046;2024-03-23T04:37:41;36.65;;;16.30;;
70320;SDS011;61127;55.826;37.046;2024-03-23T04:40:07;31.52;;;16.27;;
70320;SDS011;61127;55.826;37.046;2024-03-23T04:42:34;29.27;;;15.20;;
70320;SDS011;61127;55.826;37.046;2024-03-23T04:45:00;33.63;;;15.95;;
70320;SDS011;61127;55.826;37.046;2024-03-23T04:47:26;33.30;;;16.03;;
70320;SDS011;61127;55.826;37.046;2024-03-23T04:49:52;36.50;;;15.85;;
70320;SDS011;61127;55.826;37.046;2024-03-23T04:52:19;31.65;;;15.55;;
70320;SDS011;61127;55.826;37.046;2024-03-23T04:54:45;34.85;;;17.67;;
70320;SDS011;61127;55.826;37.046;2024-03-23T04:57:12;30.45;;;15.73;;
70320;SDS011;61127;55.826;37.046;2024-03-23T04:59:46;34.22;;;15.63;;
70320;SDS011;61127;55.826;37.046;2024-03-23T05:02:13;29.70;;;15.85;;
70320;SDS011;61127;55.826;37.046;2024-03-23T05:04:41;31.73;;;15.35;;
70320;SDS011;61127;55.826;37.046;2024-03-23T05:07:08;30.98;;;14.80;;
70320;SDS011;61127;55.826;37.046;2024-03-23T05:09:34;30.23;;;14.30;;
70320;SDS011;61127;55.826;37.046;2024-03-23T05:12:00;27.25;;;14.10;;
70320;SDS011;61127;55.826;37.046;2024-03-23T05:14:26;30.08;;;14.25;;
70320;SDS011;61127;55.826;37.046;2024-03-23T05:16:53;30.40;;;15.57;;
70320;SDS011;61127;55.826;37.046;2024-03-23T05:19:19;32.60;;;15.50;;
70320;SDS011;61127;55.826;37.046;2024-03-23T05:21:45;29.83;;;14.50;;
70320;SDS011;61127;55.826;37.046;2024-03-23T05:24:11;32.03;;;16.20;;
70320;SDS011;61127;55.826;37.046;2024-03-23T05:26:38;26.98;;;13.82;;
70320;SDS011;61127;55.826;37.046;2024-03-23T05:29:04;30.10;;;15.15;;
70320;SDS011;61127;55.826;37.046;2024-03-23T05:31:32;28.13;;;14.55;;
70320;SDS011;61127;55.826;37.046;2024-03-23T05:33:58;28.37;;;13.90;;
70320;SDS011;61127;55.826;37.046;2024-03-23T05:36:24;28.85;;;15.60;;
70320;SDS011;61127;55.826;37.046;2024-03-23T05:38:50;30.42;;;15.70;;
70320;SDS011;61127;55.826;37.046;2024-03-23T05:41:16;29.77;;;15.30;;
70320;SDS011;61127;55.826;37.046;2024-03-23T05:43:42;31.65;;;16.40;;
70320;SDS011;61127;55.826;37.046;2024-03-23T05:46:09;29.75;;;14.35;;
70320;SDS011;61127;55.826;37.046;2024-03-23T05:48:35;28.38;;;14.88;;
70320;SDS011;61127;55.826;37.046;2024-03-23T05:51:02;32.17;;;15.18;;
70320;SDS011;61127;55.826;37.046;2024-03-23T05:53:28;28.97;;;14.53;;
70320;SDS011;61127;55.826;37.046;2024-03-23T05:56:02;25.70;;;14.13;;
70320;SDS011;61127;55.826;37.046;2024-03-23T05:58:33;30.70;;;13.82;;
70320;SDS011;61127;55.826;37.046;2024-03-23T06:00:59;28.85;;;13.95;;
70320;SDS011;61127;55.826;37.046;2024-03-23T06:03:28;31.63;;;15.40;;
70320;SDS011;61127;55.826;37.046;2024-03-23T06:05:55;25.40;;;13.40;;
70320;SDS011;61127;55.826;37.046;2024-03-23T06:08:22;30.63;;;15.77;;
70320;SDS011;61127;55.826;37.046;2024-03-23T06:10:51;25.27;;;13.27;;
70320;SDS011;61127;55.826;37.046;2024-03-23T06:13:17;26.75;;;14.05;;
70320;SDS011;61127;55.826;37.046;2024-03-23T06:15:44;25.42;;;14.38;;
70320;SDS011;61127;55.826;37.046;2024-03-23T06:18:12;23.20;;;11.67;;
70320;SDS011;61127;55.826;37.046;2024-03-23T06:20:38;24.50;;;13.18;;
70320;SDS011;61127;55.826;37.046;2024-03-23T06:23:05;26.83;;;13.50;;
70320;SDS011;61127;55.826;37.046;2024-03-23T06:25:32;27.13;;;12.75;;
70320;SDS011;61127;55.826;37.046;2024-03-23T06:28:17;21.53;;;13.23;;
70320;SDS011;61127;55.826;37.046;2024-03-23T06:30:43;25.58;;;15.13;;
70320;SDS011;61127;55.826;37.046;2024-03-23T06:33:09;23.52;;;12.05;;
70320;SDS011;61127;55.826;37.046;2024-03-23T06:35:36;21.75;;;12.23;;
70320;SDS011;61127;55.826;37.046;2024-03-23T06:38:01;20.27;;;10.68;;
70320;SDS011;61127;55.826;37.046;2024-03-23T06:40:28;23.17;;;12.38;;
70320;SDS011;61127;55.826;37.046;2024-03-23T06:42:53;22.38;;;11.85;;
70320;SDS011;61127;55.826;37.046;2024-03-23T06:45:20;20.30;;;11.43;;
70320;SDS011;61127;55.826;37.046;2024-03-23T06:47:49;18.58;;;10.55;;
70320;SDS011;61127;55.826;37.046;2024-03-23T06:50:35;17.87;;;9.77;;
70320;SDS011;61127;55.826;37.046;2024-03-23T06:53:01;19.92;;;10.38;;
70320;SDS011;61127;55.826;37.046;2024-03-23T06:55:28;21.25;;;10.43;;
70320;SDS011;61127;55.826;37.046;2024-03-23T06:57:54;18.52;;;10.68;;
70320;SDS011;61127;55.826;37.046;2024-03-23T07:00:20;20.35;;;10.90;;
70320;SDS011;61127;55.826;37.046;2024-03-23T07:02:46;18.00;;;9.83;;
70320;SDS011;61127;55.826;37.046;2024-03-23T07:05:13;21.35;;;11.10;;
70320;SDS011;61127;55.826;37.046;2024-03-23T07:07:40;18.77;;;9.98;;
70320;SDS011;61127;55.826;37.046;2024-03-23T07:10:07;18.67;;;10.15;;
70320;SDS011;61127;55.826;37.046;2024-03-23T07:12:33;16.93;;;9.27;;
70320;SDS011;61127;55.826;37.046;2024-03-23T07:14:59;18.67;;;11.10;;
70320;SDS011;61127;55.826;37.046;2024-03-23T07:17:25;18.55;;;11.20;;
70320;SDS011;61127;55.826;37.046;2024-03-23T07:19:51;16.43;;;9.80;;
70320;SDS011;61127;55.826;37.046;2024-03-23T07:22:17;18.60;;;10.90;;
70320;SDS011;61127;55.826;37.046;2024-03-23T07:24:43;18.02;;;9.68;;
70320;SDS011;61127;55.826;37.046;2024-03-23T07:27:09;18.08;;;10.02;;
70320;SDS011;61127;55.826;37.046;2024-03-23T07:29:36;18.15;;;10.45;;
70320;SDS011;61127;55.826;37.046;2024-03-23T07:32:02;19.38;;;8.20;;
70320;SDS011;61127;55.826;37.046;2024-03-23T07:34:28;19.67;;;10.30;;
70320;SDS011;61127;55.826;37.046;2024-03-23T07:36:54;16.60;;;10.80;;
70320;SDS011;61127;55.826;37.046;2024-03-23T07:39:20;19.08;;;10.15;;
70320;SDS011;61127;55.826;37.046;2024-03-23T07:41:46;18.00;;;10.30;;
70320;SDS011;61127;55.826;37.046;2024-03-23T07:44:13;17.33;;;9.85;;
70320;SDS011;61127;55.826;37.046;2024-03-23T07:46:38;16.13;;;9.20;;
70320;SDS011;61127;55.826;37.046;2024-03-23T07:49:04;20.05;;;9.95;;
70320;SDS011;61127;55.826;37.046;2024-03-23T07:51:31;16.88;;;8.95;;
70320;SDS011;61127;55.826;37.046;2024-03-23T07:53:58;18.58;;;10.23;;
70320;SDS011;61127;55.826;37.046;2024-03-23T07:56:24;17.15;;;8.82;;
70320;SDS011;61127;55.826;37.046;2024-03-23T07:58:50;15.30;;;9.02;;
70320;SDS011;61127;55.826;37.046;2024-03-23T08:01:35;18.67;;;11.13;;
70320;SDS011;61127;55.826;37.046;2024-03-23T08:04:01;18.60;;;9.85;;
70320;SDS011;61127;55.826;37.046;2024-03-23T08:06:27;16.70;;;9.05;;
70320;SDS011;61127;55.826;37.046;2024-03-23T08:08:56;17.90;;;9.90;;
70320;SDS011;61127;55.826;37.046;2024-03-23T08:11:29;17.88;;;9.23;;
70320;SDS011;61127;55.826;37.046;2024-03-23T08:13:56;14.70;;;10.43;;
70320;SDS011;61127;55.826;37.046;2024-03-23T08:16:23;17.13;;;9.07;;
70320;SDS011;61127;55.826;37.046;2024-03-23T08:18:53;14.45;;;8.90;;
70320;SDS011;61127;55.826;37.046;2024-03-23T08:21:21;18.05;;;8.82;;
70320;SDS011;61127;55.826;37.046;2024-03-23T08:23:48;19.77;;;9.45;;
70320;SDS011;61127;55.826;37.046;2024-03-23T08:26:15;17.05;;;9.65;;
70320;SDS011;61127;55.826;37.046;2024-03-23T08:28:43;14.13;;;8.35;;
70320;SDS011;61127;55.826;37.046;2024-03-23T08:31:10;15.40;;;8.73;;
70320;SDS011;61127;55.826;37.046;2024-03-23T08:33:37;14.60;;;8.30;;
70320;SDS011;61127;55.826;37.046;2024-03-23T08:36:08;14.77;;;9.18;;
70320;SDS011;61127;55.826;37.046;2024-03-23T08:38:37;15.15;;;9.13;;
70320;SDS011;61127;55.826;37.046;2024-03-23T08:41:04;14.98;;;9.15;;
70320;SDS011;61127;55.826;37.046;2024-03-23T08:43:33;16.33;;;9.20;;
70320;SDS011;61127;55.826;37.046;2024-03-23T08:46:10;16.42;;;9.25;;
70320;SDS011;61127;55.826;37.046;2024-03-23T08:48:39;13.70;;;8.30;;
70320;SDS011;61127;55.826;37.046;2024-03-23T08:51:09;14.48;;;9.02;;
70320;SDS011;61127;55.826;37.046;2024-03-23T08:53:36;16.15;;;9.68;;
70320;SDS011;61127;55.826;37.046;2024-03-23T08:56:20;15.27;;;8.75;;
70320;SDS011;61127;55.826;37.046;2024-03-23T08:58:46;17.02;;;8.98;;
70320;SDS011;61127;55.826;37.046;2024-03-23T09:01:12;14.60;;;8.80;;
70320;SDS011;61127;55.826;37.046;2024-03-23T09:03:39;15.23;;;8.57;;
70320;SDS011;61127;55.826;37.046;2024-03-23T09:06:09;16.27;;;9.18;;
70320;SDS011;61127;55.826;37.046;2024-03-23T09:08:37;14.38;;;9.65;;
70320;SDS011;61127;55.826;37.046;2024-03-23T09:11:05;13.30;;;8.13;;
70320;SDS011;61127;55.826;37.046;2024-03-23T09:13:38;14.05;;;8.27;;
70320;SDS011;61127;55.826;37.046;2024-03-23T09:16:05;13.17;;;8.17;;
70320;SDS011;61127;55.826;37.046;2024-03-23T09:18:50;14.75;;;7.90;;
70320;SDS011;61127;55.826;37.046;2024-03-23T09:21:17;13.02;;;9.65;;
70320;SDS011;61127;55.826;37.046;2024-03-23T09:23:44;14.60;;;9.30;;
70320;SDS011;61127;55.826;37.046;2024-03-23T09:26:10;15.57;;;10.70;;
70320;SDS011;61127;55.826;37.046;2024-03-23T09:28:36;13.30;;;7.73;;
70320;SDS011;61127;55.826;37.046;2024-03-23T09:31:03;12.93;;;7.63;;
70320;SDS011;61127;55.826;37.046;2024-03-23T09:33:34;13.82;;;7.63;;
70320;SDS011;61127;55.826;37.046;2024-03-23T09:36:04;13.43;;;7.40;;
70320;SDS011;61127;55.826;37.046;2024-03-23T09:38:34;11.57;;;7.53;;
70320;SDS011;61127;55.826;37.046;2024-03-23T09:41:06;13.90;;;8.17;;
70320;SDS011;61127;55.826;37.046;2024-03-23T09:43:33;13.45;;;7.20;;
70320;SDS011;61127;55.826;37.046;2024-03-23T09:46:06;12.73;;;8.02;;
70320;SDS011;61127;55.826;37.046;2024-03-23T09:48:51;11.57;;;7.25;;
70320;SDS011;61127;55.826;37.046;2024-03-23T09:51:17;12.65;;;7.93;;
70320;SDS011;61127;55.826;37.046;2024-03-23T09:53:44;13.53;;;8.30;;
70320;SDS011;61127;55.826;37.046;2024-03-23T09:56:10;13.55;;;7.38;;
70320;SDS011;61127;55.826;37.046;2024-03-23T09:58:36;13.63;;;7.85;;
70320;SDS011;61127;55.826;37.046;2024-03-23T10:01:02;14.48;;;8.00;;
70320;SDS011;61127;55.826;37.046;2024-03-23T10:03:30;14.65;;;9.57;;
70320;SDS011;61127;55.826;37.046;2024-03-23T10:06:00;11.23;;;7.63;;
70320;SDS011;61127;55.826;37.046;2024-03-23T10:08:28;12.68;;;8.23;;
70320;SDS011;61127;55.826;37.046;2024-03-23T10:10:55;13.57;;;8.48;;
70320;SDS011;61127;55.826;37.046;2024-03-23T10:13:26;15.23;;;9.25;;
70320;SDS011;61127;55.826;37.046;2024-03-23T10:16:00;15.77;;;9.70;;
70320;SDS011;61127;55.826;37.046;2024-03-23T10:18:26;14.10;;;7.70;;
70320;SDS011;61127;55.826;37.046;2024-03-23T10:23:34;11.95;;;7.25;;
70320;SDS011;61127;55.826;37.046;2024-03-23T10:28:57;13.05;;;7.60;;
70320;SDS011;61127;55.826;37.046;2024-03-23T10:31:28;11.03;;;6.83;;
70320;SDS011;61127;55.826;37.046;2024-03-23T10:33:56;10.73;;;6.72;;
70320;SDS011;61127;55.826;37.046;2024-03-23T10:36:24;9.85;;;6.63;;
70320;SDS011;61127;55.826;37.046;2024-03-23T10:38:54;12.27;;;6.93;;
70320;SDS011;61127;55.826;37.046;2024-03-23T10:41:20;10.90;;;6.72;;
70320;SDS011;61127;55.826;37.046;2024-03-23T10:43:49;10.87;;;6.47;;
70320;SDS011;61127;55.826;37.046;2024-03-23T10:46:15;11.15;;;6.60;;
70320;SDS011;61127;55.826;37.046;2024-03-23T10:49:01;10.05;;;6.85;;
70320;SDS011;61127;55.826;37.046;2024-03-23T10:51:27;10.43;;;6.32;;
70320;SDS011;61127;55.826;37.046;2024-03-23T10:53:55;11.95;;;7.60;;
70320;SDS011;61127;55.826;37.046;2024-03-23T10:56:40;10.00;;;6.47;;
70320;SDS011;61127;55.826;37.046;2024-03-23T10:59:07;10.18;;;6.20;;
70320;SDS011;61127;55.826;37.046;2024-03-23T11:01:34;9.15;;;6.10;;
70320;SDS011;61127;55.826;37.046;2024-03-23T11:04:00;10.27;;;6.32;;
70320;SDS011;61127;55.826;37.046;2024-03-23T11:06:36;10.05;;;6.53;;
70320;SDS011;61127;55.826;37.046;2024-03-23T11:09:03;10.60;;;6.83;;
70320;SDS011;61127;55.826;37.046;2024-03-23T11:11:35;11.52;;;6.50;;
70320;SDS011;61127;55.826;37.046;2024-03-23T11:14:01;10.63;;;6.28;;
70320;SDS011;61127;55.826;37.046;2024-03-23T11:16:50;12.15;;;7.28;;
70320;SDS011;61127;55.826;37.046;2024-03-23T11:19:35;10.35;;;6.32;;
70320;SDS011;61127;55.826;37.046;2024-03-23T11:22:02;11.33;;;7.27;;
70320;SDS011;61127;55.826;37.046;2024-03-23T11:24:33;10.52;;;5.88;;
70320;SDS011;61127;55.826;37.046;2024-03-23T11:27:03;10.90;;;6.18;;
70320;SDS011;61127;55.826;37.046;2024-03-23T11:29:41;9.93;;;6.63;;
70320;SDS011;61127;55.826;37.046;2024-03-23T11:32:21;10.45;;;6.80;;
70320;SDS011;61127;55.826;37.046;2024-03-23T11:34:51;9.83;;;5.87;;
70320;SDS011;61127;55.826;37.046;2024-03-23T11:37:17;11.13;;;6.82;;
70320;SDS011;61127;55.826;37.046;2024-03-23T11:39:43;11.38;;;7.60;;
70320;SDS011;61127;55.826;37.046;2024-03-23T11:42:13;10.93;;;6.82;;
70320;SDS011;61127;55.826;37.046;2024-03-23T11:44:40;10.27;;;6.90;;
70320;SDS011;61127;55.826;37.046;2024-03-23T11:47:07;10.80;;;6.65;;
70320;SDS011;61127;55.826;37.046;2024-03-23T11:49:35;11.43;;;6.72;;
70320;SDS011;61127;55.826;37.046;2024-03-23T11:52:06;14.23;;;7.43;;
70320;SDS011;61127;55.826;37.046;2024-03-23T11:54:35;12.32;;;6.90;;
70320;SDS011;61127;55.826;37.046;2024-03-23T11:57:02;10.37;;;6.63;;
70320;SDS011;61127;55.826;37.046;2024-03-23T11:59:34;11.27;;;6.80;;
70320;SDS011;61127;55.826;37.046;2024-03-23T12:02:08;11.45;;;7.38;;
70320;SDS011;61127;55.826;37.046;2024-03-23T12:04:40;12.30;;;6.55;;
70320;SDS011;61127;55.826;37.046;2024-03-23T12:09:36;11.00;;;7.30;;
70320;SDS011;61127;55.826;37.046;2024-03-23T12:12:07;13.95;;;7.68;;
70320;SDS011;61127;55.826;37.046;2024-03-23T12:14:38;11.38;;;7.03;;
70320;SDS011;61127;55.826;37.046;2024-03-23T12:17:11;12.68;;;7.40;;
70320;SDS011;61127;55.826;37.046;2024-03-23T12:19:38;11.73;;;7.18;;
70320;SDS011;61127;55.826;37.046;2024-03-23T12:22:07;13.60;;;8.63;;
70320;SDS011;61127;55.826;37.046;2024-03-23T12:24:34;12.88;;;8.52;;
70320;SDS011;61127;55.826;37.046;2024-03-23T12:27:02;12.70;;;7.47;;
70320;SDS011;61127;55.826;37.046;2024-03-23T12:29:30;13.05;;;8.65;;
70320;SDS011;61127;55.826;37.046;2024-03-23T12:32:01;12.38;;;7.55;;
70320;SDS011;61127;55.826;37.046;2024-03-23T12:34:28;12.23;;;7.63;;
70320;SDS011;61127;55.826;37.046;2024-03-23T12:36:56;12.80;;;7.60;;
70320;SDS011;61127;55.826;37.046;2024-03-23T12:39:22;15.57;;;7.60;;
70320;SDS011;61127;55.826;37.046;2024-03-23T12:41:49;14.35;;;7.30;;
70320;SDS011;61127;55.826;37.046;2024-03-23T12:44:15;14.68;;;7.80;;
70320;SDS011;61127;55.826;37.046;2024-03-23T12:46:41;14.23;;;7.80;;
70320;SDS011;61127;55.826;37.046;2024-03-23T12:49:08;14.20;;;7.60;;
70320;SDS011;61127;55.826;37.046;2024-03-23T12:51:34;11.77;;;6.95;;
70320;SDS011;61127;55.826;37.046;2024-03-23T12:54:00;12.40;;;7.53;;
70320;SDS011;61127;55.826;37.046;2024-03-23T12:56:26;15.13;;;8.30;;
70320;SDS011;61127;55.826;37.046;2024-03-23T12:58:56;13.55;;;8.15;;
70320;SDS011;61127;55.826;37.046;2024-03-23T13:01:23;13.40;;;8.05;;
70320;SDS011;61127;55.826;37.046;2024-03-23T13:03:50;13.38;;;8.13;;
70320;SDS011;61127;55.826;37.046;2024-03-23T13:06:17;12.80;;;7.57;;
70320;SDS011;61127;55.826;37.046;2024-03-23T13:08:46;13.98;;;8.25;;
70320;SDS011;61127;55.826;37.046;2024-03-23T13:11:13;14.15;;;7.65;;
70320;SDS011;61127;55.826;37.046;2024-03-23T13:13:39;13.57;;;7.10;;
70320;SDS011;61127;55.826;37.046;2024-03-23T13:16:07;12.80;;;7.70;;
70320;SDS011;61127;55.826;37.046;2024-03-23T13:18:34;10.85;;;6.53;;
70320;SDS011;61127;55.826;37.046;2024-03-23T13:21:00;13.55;;;8.07;;
70320;SDS011;61127;55.826;37.046;2024-03-23T13:23:26;11.82;;;6.97;;
70320;SDS011;61127;55.826;37.046;2024-03-23T13:25:55;11.55;;;6.80;;
70320;SDS011;61127;55.826;37.046;2024-03-23T13:28:22;11.60;;;7.05;;
70320;SDS011;61127;55.826;37.046;2024-03-23T13:30:55;12.25;;;7.35;;
70320;SDS011;61127;55.826;37.046;2024-03-23T13:33:23;11.73;;;6.70;;
70320;SDS011;61127;55.826;37.046;2024-03-23T13:35:50;10.20;;;6.47;;
70320;SDS011;61127;55.826;37.046;2024-03-23T13:38:34;11.38;;;7.10;;
70320;SDS011;61127;55.826;37.046;2024-03-23T13:41:00;10.15;;;6.38;;
70320;SDS011;61127;55.826;37.046;2024-03-23T13:43:27;10.38;;;6.32;;
70320;SDS011;61127;55.826;37.046;2024-03-23T13:46:13;10.73;;;6.53;;
70320;SDS011;61127;55.826;37.046;2024-03-23T13:48:39;11.13;;;6.88;;
70320;SDS011;61127;55.826;37.046;2024-03-23T13:51:07;11.95;;;7.10;;
70320;SDS011;61127;55.826;37.046;2024-03-23T13:53:33;11.68;;;6.97;;
70320;SDS011;61127;55.826;37.046;2024-03-23T13:55:59;10.93;;;6.80;;
70320;SDS011;61127;55.826;37.046;2024-03-23T13:58:26;12.43;;;7.50;;
70320;SDS011;61127;55.826;37.046;2024-03-23T14:00:55;13.20;;;7.82;;
70320;SDS011;61127;55.826;37.046;2024-03-23T14:03:23;11.68;;;7.50;;
70320;SDS011;61127;55.826;37.046;2024-03-23T14:05:49;11.98;;;7.35;;
70320;SDS011;61127;55.826;37.046;2024-03-23T14:08:15;11.52;;;6.57;;
70320;SDS011;61127;55.826;37.046;2024-03-23T14:10:41;11.35;;;7.20;;
70320;SDS011;61127;55.826;37.046;2024-03-23T14:13:08;10.75;;;6.10;;
70320;SDS011;61127;55.826;37.046;2024-03-23T14:15:34;10.50;;;6.68;;
70320;SDS011;61127;55.826;37.046;2024-03-23T14:18:02;12.30;;;6.22;;
70320;SDS011;61127;55.826;37.046;2024-03-23T14:20:29;10.73;;;6.68;;
70320;SDS011;61127;55.826;37.046;2024-03-23T14:23:16;11.00;;;6.33;;
70320;SDS011;61127;55.826;37.046;2024-03-23T14:25:43;11.30;;;7.03;;
70320;SDS011;61127;55.826;37.046;2024-03-23T14:28:10;11.15;;;6.57;;
70320;SDS011;61127;55.826;37.046;2024-03-23T14:30:43;9.25;;;5.78;;
70320;SDS011;61127;55.826;37.046;2024-03-23T14:33:09;10.00;;;6.13;;
70320;SDS011;61127;55.826;37.046;2024-03-23T14:35:35;10.30;;;5.67;;
70320;SDS011;61127;55.826;37.046;2024-03-23T14:38:20;9.73;;;5.10;;
70320;SDS011;61127;55.826;37.046;2024-03-23T14:40:46;9.60;;;5.10;;
70320;SDS011;61127;55.826;37.046;2024-03-23T14:43:12;8.68;;;5.07;;
70320;SDS011;61127;55.826;37.046;2024-03-23T14:45:48;9.13;;;5.43;;
70320;SDS011;61127;55.826;37.046;2024-03-23T14:48:34;8.70;;;5.70;;
70320;SDS011;61127;55.826;37.046;2024-03-23T14:51:01;9.80;;;5.25;;
70320;SDS011;61127;55.826;37.046;2024-03-23T14:53:31;8.20;;;5.45;;
70320;SDS011;61127;55.826;37.046;2024-03-23T14:55:59;8.40;;;5.43;;
70320;SDS011;61127;55.826;37.046;2024-03-23T14:58:29;10.07;;;5.53;;
70320;SDS011;61127;55.826;37.046;2024-03-23T15:01:02;10.30;;;5.87;;
70320;SDS011;61127;55.826;37.046;2024-03-23T15:03:29;9.68;;;5.25;;
70320;SDS011;61127;55.826;37.046;2024-03-23T15:05:56;8.93;;;5.60;;
70320;SDS011;61127;55.826;37.046;2024-03-23T15:08:42;9.23;;;5.55;;
70320;SDS011;61127;55.826;37.046;2024-03-23T15:11:08;8.88;;;5.78;;
70320;SDS011;61127;55.826;37.046;2024-03-23T15:13:35;10.47;;;6.50;;
70320;SDS011;61127;55.826;37.046;2024-03-23T15:16:02;10.30;;;6.15;;
70320;SDS011;61127;55.826;37.046;2024-03-23T15:18:35;11.60;;;6.40;;
70320;SDS011;61127;55.826;37.046;2024-03-23T15:21:02;9.90;;;6.15;;
70320;SDS011;61127;55.826;37.046;2024-03-23T15:23:31;10.45;;;6.13;;